Terminal Aerodrome Forecast
Issued by NWS Northern Indiana

Home | Current Version | Previous Version | Text Only | Print | Product List | Glossary On
Versions: 1 2 3 4 5 6 7 8 9 10 11 12 13 14
000
FTUS43 KIWX 010817 AAA
TAFFWA
TAF AMD
KFWA 010817Z 0108/0206 28004KT 6SM BR SCT250
      TEMPO 0109/0112 4SM BR SCT006
     FM011300 31006KT P6SM BKN025
     FM011500 30008KT P6SM SCT040
     FM012300 34004KT P6SM SCT250=

USA.gov is the U.S. government's official web portal to all federal, state and local government web resources and services.